x

Ilm2 - 5 Miles Se Of Wrightsville Beach, Nc (41038) Weather Station

11:08am - Fri 17th Nov 2017 All times are EST. -5 hours from GMT.

  • Wind
    13mph, 22mph gusts
  • Sea Temp 64°f
  • Air Temp 51°f
  • Sea Pressure 1022.7mb
  • Ilm2 - 5 Miles Se Of Wrightsville Beach, Nc
  • Ilm2 - 5 Miles Se Of Wrightsville Beach, Nc

More Historic Weather Station data

Upgrade to MSW Pro to gain access to the past 30 days of data for over 8000 Wavebouys and Weather Stations around the globe.

Join

Comparision Forecast

View Surf forecast
   
Fri 11/17 11:08am 13 22 mph 1022.7mb 64f 51f
10:08am 18 25 mph 1022.6mb 64f 51f
9:08am 20 29 mph 1022.3mb 64f 51f
8:08am 22 29 mph 1021.5mb 64f 51f
7:08am 22 29 mph 1020.7mb 64f 51f
6:08am 20 27 mph 1020mb 64f 52f
5:08am 20 27 mph 1019.2mb 64f 53f
4:08am 20 27 mph 1018.3mb 64f 55f
3:08am 20 27 mph 1017.9mb 64f 57f
2:08am 18 25 mph 1017.4mb 64f 58f
1:08am 16 22 mph 1016.9mb 65f 60f
12:08am 9 16 mph 1016.7mb 65f 61f
Thu 11/16 11:08pm 9 11 mph 1016.7mb 65f 62f
10:08pm 7 9 mph 1016.6mb 65f 61f
9:08pm 9 11 mph 1016mb 65f 62f
8:08pm 7 9 mph 1015.4mb 65f 63f
7:08pm 7 9 mph 1014.8mb 65f 64f
6:08pm 7 9 mph 1014.2mb 65f 64f
5:08pm 9 11 mph 1013.5mb 65f 65f
4:08pm 7 9 mph 1013.5mb 65f 66f
3:08pm 4 7 mph 1013.5mb 65f 65f
2:08pm 7 11 mph 1013.9mb 65f 64f
1:08pm 7 11 mph 1014.3mb 65f 61f
12:08pm 9 13 mph 1015.5mb 65f 59f
11:08am 11 18 mph 1016.7mb 65f 57f
10:08am 11 18 mph 1016.6mb 65f 54f
9:08am 11 16 mph 1016.5mb 65f 52f
8:08am 13 20 mph 1015.9mb 65f 51f
7:08am 13 20 mph 1015.2mb 65f 52f
6:08am 11 20 mph 1014.9mb 65f 51f
5:08am 16 22 mph 1014.7mb 65f 52f
4:08am 13 22 mph 1014.5mb 65f 52f
3:08am 16 20 mph 1014.4mb 65f 53f
2:08am 16 20 mph 1014.5mb 65f 53f
1:08am 13 20 mph 1015.1mb 65f 54f
12:08am 11 16 mph 1015.4mb 65f 55f
Wed 11/15 11:08pm 9 13 mph 1015.1mb 65f 56f
10:08pm 11 18 mph 1015.6mb 65f 56f
9:08pm 13 18 mph 1015.9mb 65f 58f
8:08pm 11 16 mph 1015.5mb 65f 58f
7:08pm 11 16 mph 1015.4mb 65f 58f
6:08pm 11 16 mph 1015.6mb 65f 58f
5:08pm 11 16 mph 1015.5mb 65f 59f
4:08pm 9 13 mph 1014.9mb 65f 59f
3:08pm 9 13 mph 1015.1mb 65f 59f
2:08pm 9 16 mph 1015.3mb 65f 57f
1:08pm 9 16 mph 1015.8mb 65f 56f
12:08pm 11 18 mph 1017.1mb 65f 53f
11:08am 13 20 mph 1018.5mb 65f 52f
10:08am 16 22 mph 1018.8mb 65f 49f
9:08am 20 36 mph 1021.8mb 65f 48f
8:08am 20 36 mph 1022.1mb 65f 47f
7:08am 20 34 mph 1021.7mb 65f 47f
6:08am 20 36 mph 1021.5mb 65f 47f
5:08am 20 34 mph 1021.6mb 65f 48f
4:08am 22 40 mph 1021.2mb 65f 48f
3:08am 22 38 mph 1021mb 65f 48f
2:08am 25 43 mph 1021.2mb 65f 49f
1:08am 22 38 mph 1021.4mb 65f 50f
12:08am 22 38 mph 1021.8mb 65f 50f
Tue 11/14 11:08pm 22 43 mph 1022.5mb 65f 51f
10:08pm 22 40 mph 1022.9mb 65f 52f
9:08pm 22 38 mph 1023mb 65f 53f
8:08pm 22 36 mph 1022.5mb 65f 54f
7:08pm 22 38 mph 1022.1mb 66f 55f
6:08pm 20 34 mph 1022.1mb 66f 56f
5:08pm 20 31 mph 1021.2mb 66f 57f
4:08pm 20 29 mph 1021.3mb 66f 57f
3:08pm 18 27 mph 1021.5mb 66f 57f
2:08pm 18 34 mph 1021.8mb 66f 57f
1:08pm 18 31 mph 1022.5mb 66f 56f
12:08pm 20 29 mph 1023.3mb 66f 56f
11:08am 20 34 mph 1024.1mb 66f 54f
10:08am 20 34 mph 1024.4mb 66f 53f
9:08am 20 34 mph 1024.4mb 66f 49f
8:08am 20 31 mph 1024.8mb 66f 48f
7:08am 18 31 mph 1024.1mb 66f 49f
6:08am 18 29 mph 1023.8mb 66f 49f
5:08am 20 34 mph 1023.8mb 66f 50f
4:08am 20 34 mph 1023.8mb 66f 50f
3:08am 20 36 mph 1024.1mb 66f 51f
2:08am 20 36 mph 1023.8mb 66f 51f
1:08am 20 34 mph 1024mb 66f 52f
12:08am 18 34 mph 1023.9mb 66f 53f
Mon 11/13 11:08pm 18 31 mph 1024mb 66f 52f
10:08pm 18 31 mph 1024.2mb 66f 53f
9:08pm 18 29 mph 1024.3mb 66f 55f
8:08pm 20 34 mph 1024.1mb 66f 56f
7:08pm 18 31 mph 1023.9mb 66f 59f
6:08pm 16 25 mph 1023.5mb 66f 59f